createdAt,value
2023-04-05T00:02:34.879Z,101722.03
2023-04-05T00:07:36.612Z,101719.81
2023-04-05T00:12:38.253Z,101707.41
2023-04-05T00:17:40.061Z,101711.72
2023-04-05T00:22:42.516Z,101697.88
2023-04-05T00:27:44.610Z,101695.84
2023-04-05T00:32:50.351Z,101693.06
2023-04-05T00:37:52.210Z,101687.59
2023-04-05T00:42:53.980Z,101705.16
2023-04-05T00:47:56.001Z,101708.34
2023-04-05T00:52:58.619Z,101706.41
2023-04-05T00:58:00.736Z,101706.09
2023-04-05T01:03:03.410Z,101699.97
2023-04-05T01:08:08.229Z,101695.25
2023-04-05T01:13:09.801Z,101691.38
2023-04-05T01:18:11.522Z,101688.19
2023-04-05T01:23:32.754Z,101678.59
2023-04-05T01:28:40.262Z,101677.97
2023-04-05T01:33:50.424Z,101683.75
2023-04-05T01:38:54.720Z,101684.66
2023-04-05T01:43:56.354Z,101680.13
2023-04-05T01:48:58.013Z,101677.06
2023-04-05T01:53:59.634Z,101675.53
2023-04-05T01:59:01.412Z,101668.69
2023-04-05T02:04:03.022Z,101672.97
2023-04-05T02:09:05.723Z,101660.56
2023-04-05T02:14:07.278Z,101658.59
2023-04-05T02:19:08.805Z,101660.34
2023-04-05T02:24:10.330Z,101660.72
2023-04-05T02:29:13.284Z,101658.34
2023-04-05T02:34:14.822Z,101651.19
2023-04-05T02:39:16.371Z,101653.94
2023-04-05T02:44:18.080Z,101657.34
2023-04-05T02:49:19.593Z,101647.81
2023-04-05T02:54:21.650Z,101654.91
2023-04-05T02:59:23.825Z,101646.09
2023-04-05T03:04:25.425Z,101654.09
2023-04-05T03:09:28.873Z,101651.38
2023-04-05T03:14:36.550Z,101654.78
2023-04-05T03:19:38.667Z,101648.19
2023-04-05T03:24:54.660Z,101644.34
2023-04-05T03:29:57.078Z,101642.03
2023-04-05T03:34:58.990Z,101644.63
2023-04-05T03:40:00.567Z,101643.84
2023-04-05T03:45:02.229Z,101643.13
2023-04-05T03:50:04.285Z,101640.41
2023-04-05T03:55:07.735Z,101630.22
2023-04-05T04:00:11.523Z,101626.88
2023-04-05T04:05:17.439Z,101626.09
2023-04-05T04:10:23.962Z,101630.72
2023-04-05T04:15:29.348Z,101622.69
2023-04-05T04:20:44.818Z,101623.34
2023-04-05T04:26:12.008Z,101628.06
2023-04-05T04:31:32.127Z,101631.34
2023-04-05T04:36:59.650Z,101624.38
2023-04-05T04:42:30.637Z,101627.34
2023-04-05T04:48:01.448Z,101629.69
2023-04-05T04:53:24.609Z,101630.44
2023-04-05T04:58:26.129Z,101632.38
2023-04-05T05:03:36.798Z,101648.13
2023-04-05T05:08:38.328Z,101642.72
2023-04-05T05:13:39.838Z,101641.34
2023-04-05T05:18:42.631Z,101651.09
2023-04-05T05:23:44.234Z,101639.00
2023-04-05T05:28:45.751Z,101646.88
2023-04-05T05:33:47.369Z,101649.03
2023-04-05T05:38:48.879Z,101648.16
2023-04-05T05:43:50.416Z,101642.28
2023-04-05T05:48:52.241Z,101638.25
2023-04-05T05:53:53.801Z,101647.13
2023-04-05T05:58:55.404Z,101654.78
2023-04-05T06:03:57.003Z,101654.84
2023-04-05T06:08:58.528Z,101649.78
2023-04-05T06:14:00.055Z,101646.31
2023-04-05T06:19:01.582Z,101652.72
2023-04-05T06:24:03.192Z,101653.28
2023-04-05T06:29:08.334Z,101655.06
2023-04-05T06:34:09.828Z,101658.00
2023-04-05T06:39:11.347Z,101654.25
2023-04-05T06:44:12.957Z,101651.91
2023-04-05T06:49:14.605Z,101649.41
2023-04-05T06:54:16.191Z,101656.41
2023-04-05T06:59:17.840Z,101657.97
2023-04-05T07:04:19.426Z,101662.16
2023-04-05T07:09:21.048Z,101655.97
2023-04-05T07:14:23.096Z,101655.63
2023-04-05T07:19:24.830Z,101655.84
2023-04-05T07:24:26.328Z,101650.78
2023-04-05T07:29:27.881Z,101643.09
2023-04-05T07:34:29.405Z,101655.84
2023-04-05T07:39:31.151Z,101645.66
2023-04-05T07:44:33.754Z,101647.91
2023-04-05T07:49:35.333Z,101653.31
2023-04-05T07:54:36.888Z,101657.16
2023-04-05T07:59:38.630Z,101655.69
2023-04-05T08:04:40.299Z,101647.63
2023-04-05T08:09:41.873Z,101647.94
2023-04-05T08:14:43.425Z,101648.19
2023-04-05T08:19:44.972Z,101648.66
2023-04-05T08:24:46.543Z,101646.03
2023-04-05T08:29:48.131Z,101644.47
2023-04-05T08:34:49.628Z,101646.34
2023-04-05T08:39:51.303Z,101642.72
2023-04-05T08:44:53.362Z,101641.75
2023-04-05T08:49:55.336Z,101644.41
2023-04-05T08:54:57.034Z,101643.25
2023-04-05T09:00:02.478Z,101637.44
2023-04-05T09:05:09.115Z,101632.44
2023-04-05T09:10:13.778Z,101634.97
2023-04-05T09:15:16.739Z,101641.03
2023-04-05T09:20:18.469Z,101634.09
2023-04-05T09:25:32.178Z,101623.19
2023-04-05T09:30:34.384Z,101625.38
2023-04-05T09:35:37.212Z,101627.34
2023-04-05T09:40:45.625Z,101622.50
2023-04-05T09:45:50.186Z,101623.72
2023-04-05T09:51:12.726Z,101610.06
2023-04-05T09:56:14.794Z,101608.22
2023-04-05T10:01:17.419Z,101611.94
2023-04-05T10:06:19.197Z,101602.53
2023-04-05T10:11:20.765Z,101606.03
2023-04-05T10:16:26.412Z,101598.28
2023-04-05T10:21:35.409Z,101600.34
2023-04-05T10:26:48.743Z,101592.28
2023-04-05T10:31:55.116Z,101597.16
2023-04-05T10:36:56.756Z,101590.22
2023-04-05T10:42:09.930Z,101588.22
2023-04-05T10:47:16.423Z,101578.75
2023-04-05T10:52:18.293Z,101567.09
2023-04-05T10:57:21.313Z,101570.75
2023-04-05T11:02:23.226Z,101556.66
2023-04-05T11:07:24.973Z,101561.63
2023-04-05T11:12:47.993Z,101560.66
2023-04-05T11:18:07.742Z,101551.25
2023-04-05T11:23:15.037Z,101551.53
2023-04-05T11:28:37.201Z,101552.84
2023-04-05T11:33:49.795Z,101543.31
2023-04-05T11:39:29.575Z,101533.13
2023-04-05T11:44:39.987Z,101529.72
2023-04-05T11:49:41.538Z,101531.69
2023-04-05T11:54:44.046Z,101525.38
2023-04-05T11:59:45.673Z,101512.50
2023-04-05T12:04:54.630Z,101506.97
2023-04-05T12:10:17.178Z,101502.03
2023-04-05T12:15:18.816Z,101494.16
2023-04-05T12:20:25.029Z,101486.72
2023-04-05T12:25:26.840Z,101498.50
2023-04-05T12:30:28.402Z,101490.31
2023-04-05T12:35:30.188Z,101487.25
2023-04-05T12:40:35.563Z,101485.63
2023-04-05T12:45:37.940Z,101466.16
2023-04-05T12:50:47.433Z,101466.59
2023-04-05T12:55:50.110Z,101460.59
2023-04-05T13:00:51.707Z,101455.91
2023-04-05T13:05:53.461Z,101450.22
2023-04-05T13:10:57.750Z,101452.41
2023-04-05T13:15:59.920Z,101443.47
2023-04-05T13:21:01.681Z,101441.50
2023-04-05T13:26:04.437Z,101424.53
2023-04-05T13:31:06.014Z,101424.47
2023-04-05T13:36:07.935Z,101419.81
2023-04-05T13:41:09.543Z,101407.88
2023-04-05T13:46:11.203Z,101405.78
2023-04-05T13:51:12.879Z,101405.66
2023-04-05T13:56:14.422Z,101394.53
2023-04-05T14:01:16.004Z,101390.28
2023-04-05T14:06:17.653Z,101375.31
2023-04-05T14:11:19.184Z,101378.88
2023-04-05T14:16:20.803Z,101377.97
2023-04-05T14:21:23.864Z,101376.03
2023-04-05T14:26:26.915Z,101361.25
2023-04-05T14:31:28.591Z,101345.41
2023-04-05T14:36:30.201Z,101352.03
2023-04-05T14:41:31.872Z,101342.00
2023-04-05T14:46:33.547Z,101336.59
2023-04-05T14:51:35.227Z,101325.84
2023-04-05T14:56:36.917Z,101325.84
2023-04-05T15:01:38.663Z,101316.91
2023-04-05T15:06:40.304Z,101308.59
2023-04-05T15:11:43.062Z,101306.16
2023-04-05T15:16:44.679Z,101306.41
2023-04-05T15:21:46.423Z,101304.03
2023-04-05T15:26:48.037Z,101307.56
2023-04-05T15:31:49.673Z,101304.50
2023-04-05T15:36:51.325Z,101296.03
2023-04-05T15:41:53.020Z,101294.47
2023-04-05T15:46:54.678Z,101288.97
2023-04-05T15:51:56.276Z,101288.69
2023-04-05T15:56:57.877Z,101280.75
2023-04-05T16:01:59.659Z,101278.25
2023-04-05T16:07:01.284Z,101270.78
2023-04-05T16:12:03.093Z,101271.91
2023-04-05T16:17:04.743Z,101264.47
2023-04-05T16:22:06.456Z,101256.50
2023-04-05T16:27:08.320Z,101255.72
2023-04-05T16:32:10.010Z,101263.44
2023-04-05T16:37:11.578Z,101259.16
2023-04-05T16:42:13.129Z,101256.28
2023-04-05T16:47:14.713Z,101258.94
2023-04-05T16:52:16.384Z,101260.78
2023-04-05T16:57:18.123Z,101265.03
2023-04-05T17:02:19.822Z,101261.50
2023-04-05T17:07:21.428Z,101256.00
2023-04-05T17:12:23.152Z,101258.66
2023-04-05T17:17:24.847Z,101251.66
2023-04-05T17:22:26.749Z,101250.78
2023-04-05T17:27:28.442Z,101248.91
2023-04-05T17:32:30.044Z,101245.31
2023-04-05T17:37:31.752Z,101245.81
2023-04-05T17:42:33.302Z,101245.84
2023-04-05T17:47:34.898Z,101250.06
2023-04-05T17:52:36.567Z,101245.34
2023-04-05T17:57:38.213Z,101247.03
2023-04-05T18:02:40.048Z,101254.44
2023-04-05T18:07:41.714Z,101249.16
2023-04-05T18:12:43.270Z,101249.63
2023-04-05T18:17:45.389Z,101251.28
2023-04-05T18:22:47.162Z,101254.22
2023-04-05T18:27:48.768Z,101259.63
2023-04-05T18:32:50.704Z,101255.56
2023-04-05T18:37:52.346Z,101261.09
2023-04-05T18:42:53.944Z,101264.09
2023-04-05T18:47:55.600Z,101265.59
2023-04-05T18:52:57.176Z,101267.94
2023-04-05T18:57:58.724Z,101269.72
2023-04-05T19:03:00.418Z,101271.28
2023-04-05T19:08:02.024Z,101275.00
2023-04-05T19:13:03.649Z,101284.41
2023-04-05T19:18:05.387Z,101282.66
2023-04-05T19:23:06.996Z,101282.81
2023-04-05T19:28:08.630Z,101278.88
2023-04-05T19:33:10.305Z,101282.28
2023-04-05T19:38:11.958Z,101286.63
2023-04-05T19:43:14.686Z,101284.09
2023-04-05T19:48:38.650Z,101282.13
2023-04-05T19:53:41.548Z,101277.59
2023-04-05T19:58:43.915Z,101279.13
2023-04-05T20:03:45.634Z,101281.06
2023-04-05T20:08:47.819Z,101281.19
2023-04-05T20:13:56.518Z,101278.34
2023-04-05T20:19:06.315Z,101284.63
2023-04-05T20:24:10.086Z,101289.22
2023-04-05T20:29:16.910Z,101277.47
2023-04-05T20:34:26.579Z,101275.88
2023-04-05T20:39:29.667Z,101271.06
2023-04-05T20:44:31.260Z,101275.44
2023-04-05T20:49:32.803Z,101269.16
2023-04-05T20:54:34.355Z,101271.91
2023-04-05T20:59:35.964Z,101273.13
2023-04-05T21:04:37.565Z,101270.25
2023-04-05T21:09:39.126Z,101260.81
2023-04-05T21:14:40.712Z,101250.53
2023-04-05T21:19:42.269Z,101258.34
2023-04-05T21:24:43.823Z,101253.00
2023-04-05T21:29:45.410Z,101259.44
2023-04-05T21:34:46.954Z,101244.34
2023-04-05T21:39:48.479Z,101251.63
2023-04-05T21:44:50.005Z,101245.03
2023-04-05T21:49:51.542Z,101247.88
2023-04-05T21:54:53.100Z,101245.34
2023-04-05T21:59:54.669Z,101244.69
2023-04-05T22:04:56.217Z,101248.38
2023-04-05T22:09:57.769Z,101244.19
2023-04-05T22:14:59.343Z,101242.38
2023-04-05T22:20:00.865Z,101235.13
2023-04-05T22:25:02.448Z,101236.59
2023-04-05T22:30:04.750Z,101237.72
2023-04-05T22:35:06.921Z,101233.72
2023-04-05T22:40:08.958Z,101229.75
2023-04-05T22:45:10.928Z,101229.69
2023-04-05T22:50:12.507Z,101224.69
2023-04-05T22:55:14.070Z,101224.50
2023-04-05T23:00:16.454Z,101229.56
2023-04-05T23:05:18.038Z,101228.50
2023-04-05T23:10:19.992Z,101220.38
2023-04-05T23:15:21.726Z,101213.94
2023-04-05T23:20:23.356Z,101218.91
2023-04-05T23:25:24.925Z,101211.03
2023-04-05T23:30:26.513Z,101213.22
2023-04-05T23:35:28.172Z,101219.38
2023-04-05T23:40:29.765Z,101209.50
2023-04-05T23:45:31.354Z,101205.81
2023-04-05T23:50:32.890Z,101205.91
2023-04-05T23:55:34.417Z,101209.88
